createdAt,value
2023-05-09T00:00:39.787Z,101459.03
2023-05-09T00:03:06.372Z,101463.94
2023-05-09T00:05:33.184Z,101456.03
2023-05-09T00:07:59.739Z,101454.38
2023-05-09T00:10:27.359Z,101457.16
2023-05-09T00:12:53.831Z,101446.44
2023-05-09T00:15:20.424Z,101453.03
2023-05-09T00:17:47.365Z,101457.94
2023-05-09T00:20:14.541Z,101458.72
2023-05-09T00:22:41.363Z,101458.72
2023-05-09T00:25:11.901Z,101451.34
2023-05-09T00:27:38.593Z,101446.19
2023-05-09T00:30:05.793Z,101450.47
2023-05-09T00:32:33.372Z,101441.19
2023-05-09T00:34:59.925Z,101437.91
2023-05-09T00:37:26.704Z,101435.72
2023-05-09T00:39:53.136Z,101437.66
2023-05-09T00:42:19.579Z,101426.22
2023-05-09T00:44:46.411Z,101432.97
2023-05-09T00:47:12.972Z,101431.31
2023-05-09T00:49:39.501Z,101413.31
2023-05-09T00:52:06.302Z,101416.88
2023-05-09T00:54:33.097Z,101414.94
2023-05-09T00:57:00.903Z,101407.78
2023-05-09T00:59:27.534Z,101409.44
2023-05-09T01:01:54.033Z,101409.47
2023-05-09T01:04:20.874Z,101404.25
2023-05-09T01:06:55.527Z,101398.50
2023-05-09T01:09:32.602Z,101393.31
2023-05-09T01:12:11.154Z,101390.34
2023-05-09T01:14:52.501Z,101387.91
2023-05-09T01:17:31.669Z,101383.53
2023-05-09T01:20:26.983Z,101384.38
2023-05-09T01:23:10.878Z,101374.00
2023-05-09T01:25:53.229Z,101371.84
2023-05-09T01:28:32.494Z,101374.78
2023-05-09T01:30:59.752Z,101378.31
2023-05-09T01:33:28.908Z,101372.88
2023-05-09T01:36:01.852Z,101359.50
2023-05-09T01:38:32.064Z,101359.47
2023-05-09T01:41:00.417Z,101364.34
2023-05-09T01:43:29.831Z,101359.69
2023-05-09T01:45:58.993Z,101355.94
2023-05-09T01:48:30.130Z,101352.09
2023-05-09T01:50:58.944Z,101356.16
2023-05-09T01:53:27.906Z,101360.56
2023-05-09T01:55:56.536Z,101355.09
2023-05-09T01:58:24.669Z,101361.56
2023-05-09T02:00:51.917Z,101364.56
2023-05-09T02:03:21.198Z,101359.38
2023-05-09T02:05:49.479Z,101360.44
2023-05-09T02:08:21.016Z,101356.13
2023-05-09T02:10:49.243Z,101352.25
2023-05-09T02:13:16.099Z,101356.06
2023-05-09T02:15:43.899Z,101351.16
2023-05-09T02:18:10.914Z,101350.03
2023-05-09T02:20:37.462Z,101356.91
2023-05-09T02:23:04.470Z,101355.25
2023-05-09T02:25:33.173Z,101355.19
2023-05-09T02:28:01.493Z,101349.50
2023-05-09T02:30:33.401Z,101343.81
2023-05-09T02:33:04.939Z,101342.94
2023-05-09T02:35:31.918Z,101346.47
2023-05-09T02:37:59.422Z,101339.75
2023-05-09T02:40:28.010Z,101342.69
2023-05-09T02:42:54.653Z,101347.56
2023-05-09T02:45:21.327Z,101343.00
2023-05-09T02:47:47.819Z,101341.91
2023-05-09T02:50:14.496Z,101338.13
2023-05-09T02:52:41.919Z,101325.56
2023-05-09T02:55:09.568Z,101329.41
2023-05-09T02:57:39.119Z,101326.44
2023-05-09T03:00:09.639Z,101324.25
2023-05-09T03:02:37.579Z,101324.53
2023-05-09T03:05:06.702Z,101322.59
2023-05-09T03:07:35.200Z,101312.50
2023-05-09T03:10:02.364Z,101317.72
2023-05-09T03:12:31.115Z,101315.47
2023-05-09T03:14:57.802Z,101305.94
2023-05-09T03:17:24.468Z,101308.88
2023-05-09T03:19:50.925Z,101313.84
2023-05-09T03:22:17.315Z,101314.31
2023-05-09T03:24:55.711Z,101309.22
2023-05-09T03:27:22.405Z,101304.81
2023-05-09T03:29:50.112Z,101300.72
2023-05-09T03:32:18.734Z,101302.03
2023-05-09T03:34:45.441Z,101307.53
2023-05-09T03:37:12.194Z,101303.94
2023-05-09T03:39:40.802Z,101299.22
2023-05-09T03:42:07.215Z,101300.28
2023-05-09T03:44:34.258Z,101295.72
2023-05-09T03:47:00.919Z,101303.03
2023-05-09T03:49:33.186Z,101291.69
2023-05-09T03:51:59.645Z,101288.56
2023-05-09T03:54:26.988Z,101294.81
2023-05-09T03:56:53.455Z,101295.13
2023-05-09T03:59:20.686Z,101290.41
2023-05-09T04:01:47.192Z,101296.22
2023-05-09T04:04:13.858Z,101282.59
2023-05-09T04:06:40.595Z,101282.06
2023-05-09T04:09:09.408Z,101285.31
2023-05-09T04:11:36.529Z,101284.84
2023-05-09T04:14:07.767Z,101284.03
2023-05-09T04:16:36.031Z,101277.84
2023-05-09T04:19:02.558Z,101278.44
2023-05-09T04:21:29.261Z,101286.00
2023-05-09T04:23:59.150Z,101276.19
2023-05-09T04:26:38.982Z,101268.91
2023-05-09T04:29:08.641Z,101267.28
2023-05-09T04:31:36.023Z,101262.16
2023-05-09T04:34:03.471Z,101267.06
2023-05-09T04:36:34.091Z,101275.72
2023-05-09T04:39:00.815Z,101270.88
2023-05-09T04:41:28.568Z,101271.75
2023-05-09T04:43:55.629Z,101266.56
2023-05-09T04:46:25.847Z,101264.41
2023-05-09T04:48:52.879Z,101265.22
2023-05-09T04:51:20.383Z,101264.72
2023-05-09T04:53:46.792Z,101262.31
2023-05-09T04:56:15.322Z,101265.56
2023-05-09T04:58:42.930Z,101266.66
2023-05-09T05:01:10.905Z,101264.53
2023-05-09T05:03:38.677Z,101263.97
2023-05-09T05:06:06.604Z,101258.31
2023-05-09T05:08:33.782Z,101257.19
2023-05-09T05:11:00.640Z,101256.13
2023-05-09T05:13:27.910Z,101254.75
2023-05-09T05:15:58.663Z,101254.75
2023-05-09T05:18:25.250Z,101247.44
2023-05-09T05:20:51.635Z,101248.78
2023-05-09T05:23:18.323Z,101252.88
2023-05-09T05:25:44.851Z,101251.00
2023-05-09T05:28:13.145Z,101243.94
2023-05-09T05:30:41.204Z,101250.19
2023-05-09T05:33:07.992Z,101244.19
2023-05-09T05:35:34.552Z,101238.44
2023-05-09T05:38:01.384Z,101232.19
2023-05-09T05:40:28.144Z,101225.88
2023-05-09T05:42:55.858Z,101225.78
2023-05-09T05:45:23.274Z,101230.16
2023-05-09T05:47:53.277Z,101220.81
2023-05-09T05:50:20.348Z,101216.53
2023-05-09T05:52:47.276Z,101222.22
2023-05-09T05:55:15.709Z,101224.31
2023-05-09T05:57:42.377Z,101217.97
2023-05-09T06:00:14.504Z,101218.41
2023-05-09T06:02:45.418Z,101217.03
2023-05-09T06:05:19.373Z,101220.25
2023-05-09T06:07:46.045Z,101199.25
2023-05-09T06:10:12.589Z,101207.31
2023-05-09T06:12:38.984Z,101201.03
2023-05-09T06:15:07.302Z,101206.47
2023-05-09T06:17:37.718Z,101199.13
2023-05-09T06:20:04.910Z,101192.53
2023-05-09T06:22:31.282Z,101184.84
2023-05-09T06:24:57.951Z,101192.13
2023-05-09T06:27:24.484Z,101197.88
2023-05-09T06:29:52.604Z,101191.84
2023-05-09T06:32:19.445Z,101188.72
2023-05-09T06:34:45.926Z,101183.31
2023-05-09T06:37:12.382Z,101187.06
2023-05-09T06:39:38.827Z,101181.81
2023-05-09T06:42:05.699Z,101179.97
2023-05-09T06:44:37.130Z,101170.53
2023-05-09T06:47:03.614Z,101172.09
2023-05-09T06:49:30.189Z,101167.97
2023-05-09T06:51:56.602Z,101166.84
2023-05-09T06:54:23.047Z,101154.84
2023-05-09T06:56:49.436Z,101157.41
2023-05-09T06:59:16.495Z,101157.31
2023-05-09T07:01:43.120Z,101157.25
2023-05-09T07:04:09.563Z,101155.91
2023-05-09T07:06:35.999Z,101153.06
2023-05-09T07:09:03.710Z,101148.69
2023-05-09T07:11:37.676Z,101139.06
2023-05-09T07:14:04.572Z,101135.19
2023-05-09T07:16:31.174Z,101133.56
2023-05-09T07:18:57.608Z,101141.09
2023-05-09T07:21:24.153Z,101130.22
2023-05-09T07:23:50.574Z,101125.88
2023-05-09T07:26:16.985Z,101127.28
2023-05-09T07:28:43.428Z,101129.28
2023-05-09T07:31:10.100Z,101117.72
2023-05-09T07:33:36.578Z,101114.22
2023-05-09T07:36:03.022Z,101113.19
2023-05-09T07:38:29.519Z,101122.16
2023-05-09T07:40:55.995Z,101116.19
2023-05-09T07:43:22.425Z,101109.88
2023-05-09T07:45:48.976Z,101101.81
2023-05-09T07:48:15.514Z,101103.44
2023-05-09T07:50:42.140Z,101094.75
2023-05-09T07:53:08.635Z,101090.84
2023-05-09T07:55:35.063Z,101090.72
2023-05-09T07:58:01.453Z,101092.75
2023-05-09T08:00:27.890Z,101086.78
2023-05-09T08:02:54.443Z,101083.41
2023-05-09T08:05:21.007Z,101071.41
2023-05-09T08:07:47.401Z,101073.25
2023-05-09T08:10:14.005Z,101070.69
2023-05-09T08:12:40.537Z,101066.19
2023-05-09T08:15:07.831Z,101061.94
2023-05-09T08:17:34.604Z,101056.75
2023-05-09T08:20:01.687Z,101054.13
2023-05-09T08:22:28.115Z,101053.81
2023-05-09T08:24:54.538Z,101042.03
2023-05-09T08:27:20.952Z,101045.81
2023-05-09T08:29:47.348Z,101052.13
2023-05-09T08:32:14.196Z,101040.66
2023-05-09T08:34:40.855Z,101040.31
2023-05-09T08:37:07.652Z,101030.59
2023-05-09T08:39:37.298Z,101028.03
2023-05-09T08:42:04.094Z,101033.84
2023-05-09T08:44:31.871Z,101030.22
2023-05-09T08:47:02.990Z,101041.91
2023-05-09T08:49:30.381Z,101038.44
2023-05-09T08:51:57.080Z,101034.00
2023-05-09T08:54:24.390Z,101029.56
2023-05-09T08:56:51.377Z,101035.28
2023-05-09T08:59:18.817Z,101025.00
2023-05-09T09:01:45.824Z,101017.84
2023-05-09T09:04:12.406Z,101012.34
2023-05-09T09:06:40.528Z,101012.22
2023-05-09T09:09:08.935Z,100997.66
2023-05-09T09:11:38.929Z,101008.25
2023-05-09T09:14:12.993Z,101008.41
2023-05-09T09:16:41.593Z,101006.97
2023-05-09T09:19:12.914Z,100987.00
2023-05-09T09:21:44.551Z,100991.91
2023-05-09T09:24:14.700Z,100986.03
2023-05-09T09:26:49.383Z,100990.78
2023-05-09T09:29:17.444Z,100980.75
2023-05-09T09:31:47.948Z,100979.91
2023-05-09T09:34:22.334Z,100981.19
2023-05-09T09:36:49.510Z,100972.94
2023-05-09T09:39:16.023Z,100967.88
2023-05-09T09:41:44.448Z,100966.63
2023-05-09T09:44:15.311Z,100955.56
2023-05-09T09:46:47.006Z,100959.53
2023-05-09T09:49:14.902Z,100950.06
2023-05-09T09:51:42.059Z,100944.41
2023-05-09T09:54:10.001Z,100931.16
2023-05-09T09:56:47.407Z,100924.16
2023-05-09T09:59:16.371Z,100922.66
2023-05-09T10:02:07.507Z,100919.56
2023-05-09T10:04:36.644Z,100917.84
2023-05-09T10:07:06.196Z,100927.56
2023-05-09T10:09:34.416Z,100925.19
2023-05-09T10:12:07.853Z,100910.28
2023-05-09T10:14:36.613Z,100912.75
2023-05-09T10:17:05.235Z,100912.16
2023-05-09T10:19:32.960Z,100906.91
2023-05-09T10:22:08.041Z,100900.84
2023-05-09T10:24:40.475Z,100894.88
2023-05-09T10:27:11.688Z,100892.19
2023-05-09T10:29:44.757Z,100883.34
2023-05-09T10:32:53.470Z,100886.00
2023-05-09T10:35:33.618Z,100873.72
2023-05-09T10:38:02.054Z,100878.69
2023-05-09T10:40:29.120Z,100866.38
2023-05-09T10:42:55.572Z,100861.34
2023-05-09T10:45:22.438Z,100859.19
2023-05-09T10:47:51.448Z,100863.34
2023-05-09T10:50:18.495Z,100856.97
2023-05-09T10:53:11.469Z,100857.63
2023-05-09T10:55:47.224Z,100850.34
2023-05-09T10:58:20.186Z,100845.72
2023-05-09T11:00:48.394Z,100838.66
2023-05-09T11:03:15.168Z,100838.22
2023-05-09T11:05:41.917Z,100835.72
2023-05-09T11:08:25.353Z,100826.34
2023-05-09T11:10:54.163Z,100818.84
2023-05-09T11:13:25.775Z,100827.69
2023-05-09T11:16:01.583Z,100814.16
2023-05-09T11:18:32.835Z,100808.38
2023-05-09T11:21:08.600Z,100799.47
2023-05-09T11:23:35.142Z,100804.06
2023-05-09T11:26:06.463Z,100802.84
2023-05-09T11:28:37.822Z,100802.09
2023-05-09T11:31:18.324Z,100796.34
2023-05-09T11:33:49.013Z,100800.09
2023-05-09T11:36:20.766Z,100802.53
2023-05-09T11:38:47.701Z,100796.91
2023-05-09T11:41:14.776Z,100782.97
2023-05-09T11:43:44.508Z,100785.28
2023-05-09T11:46:11.495Z,100780.38
2023-05-09T11:48:39.473Z,100785.00
2023-05-09T11:51:06.416Z,100775.81
2023-05-09T11:53:33.271Z,100772.22
2023-05-09T11:56:04.024Z,100771.31
2023-05-09T11:58:31.130Z,100777.50
2023-05-09T12:00:57.898Z,100769.19
2023-05-09T12:03:25.101Z,100767.56
2023-05-09T12:05:51.795Z,100765.06
2023-05-09T12:08:18.343Z,100757.09
2023-05-09T12:10:44.736Z,100764.06
2023-05-09T12:13:11.251Z,100759.44
2023-05-09T12:15:38.208Z,100758.00
2023-05-09T12:18:06.561Z,100739.09
2023-05-09T12:20:52.696Z,100738.75
2023-05-09T12:23:19.631Z,100740.63
2023-05-09T12:25:53.805Z,100731.59
2023-05-09T12:28:22.443Z,100736.53
2023-05-09T12:30:50.153Z,100731.41
2023-05-09T12:33:17.067Z,100728.88
2023-05-09T12:35:47.303Z,100730.53
2023-05-09T12:38:15.794Z,100722.69
2023-05-09T12:40:44.181Z,100721.53
2023-05-09T12:43:10.670Z,100727.16
2023-05-09T12:45:39.118Z,100716.59
2023-05-09T12:48:06.136Z,100714.81
2023-05-09T12:50:36.449Z,100713.25
2023-05-09T12:53:04.416Z,100712.50
2023-05-09T12:55:31.876Z,100701.59
2023-05-09T12:58:03.465Z,100708.84
2023-05-09T13:00:42.473Z,100702.66
2023-05-09T13:03:26.224Z,100705.63
2023-05-09T13:06:02.273Z,100697.38
2023-05-09T13:08:29.314Z,100698.81
2023-05-09T13:11:08.081Z,100693.94
2023-05-09T13:13:42.374Z,100689.44
2023-05-09T13:16:10.764Z,100699.38
2023-05-09T13:18:38.749Z,100686.28
2023-05-09T13:21:05.278Z,100679.66
2023-05-09T13:23:32.011Z,100666.59
2023-05-09T13:25:58.416Z,100665.94
2023-05-09T13:28:24.837Z,100663.03
2023-05-09T13:30:51.279Z,100666.94
2023-05-09T13:33:25.869Z,100657.13
2023-05-09T13:35:53.060Z,100648.44
2023-05-09T13:38:19.500Z,100646.03
2023-05-09T13:40:46.286Z,100643.56
2023-05-09T13:43:12.699Z,100650.59
2023-05-09T13:45:39.390Z,100631.47
2023-05-09T13:48:06.505Z,100631.84
2023-05-09T13:50:34.331Z,100626.41
2023-05-09T13:53:02.007Z,100620.19
2023-05-09T13:55:29.664Z,100619.59
2023-05-09T13:57:56.356Z,100615.19
2023-05-09T14:00:25.430Z,100616.06
2023-05-09T14:02:52.610Z,100615.94
2023-05-09T14:05:19.121Z,100600.19
2023-05-09T14:07:45.833Z,100600.97
2023-05-09T14:10:12.665Z,100595.28
2023-05-09T14:12:39.833Z,100597.44
2023-05-09T14:15:07.847Z,100597.44
2023-05-09T14:17:34.665Z,100590.53
2023-05-09T14:20:01.276Z,100583.59
2023-05-09T14:22:28.195Z,100586.41
2023-05-09T14:24:56.433Z,100576.19
2023-05-09T14:27:23.242Z,100576.56
2023-05-09T14:29:49.655Z,100573.00
2023-05-09T14:32:16.287Z,100572.69
2023-05-09T14:34:42.748Z,100573.63
2023-05-09T14:37:13.619Z,100556.88
2023-05-09T14:39:45.314Z,100564.72
2023-05-09T14:42:13.970Z,100566.56
2023-05-09T14:44:41.661Z,100550.88
2023-05-09T14:47:09.644Z,100548.69
2023-05-09T14:50:02.670Z,100545.78
2023-05-09T14:52:29.101Z,100542.69
2023-05-09T14:54:55.636Z,100540.41
2023-05-09T14:57:22.303Z,100525.19
2023-05-09T14:59:48.754Z,100525.91
2023-05-09T15:02:15.214Z,100523.38
2023-05-09T15:04:43.726Z,100524.91
2023-05-09T15:07:10.623Z,100523.88
2023-05-09T15:09:37.861Z,100517.97
2023-05-09T15:12:04.653Z,100516.50
2023-05-09T15:14:31.284Z,100510.38
2023-05-09T15:17:01.790Z,100509.94
2023-05-09T15:19:31.434Z,100509.59
2023-05-09T15:21:59.505Z,100507.81
2023-05-09T15:24:26.948Z,100502.03
2023-05-09T15:26:54.197Z,100497.91
2023-05-09T15:29:21.692Z,100506.13
2023-05-09T15:31:48.841Z,100509.06
2023-05-09T15:34:15.485Z,100494.97
2023-05-09T15:36:41.934Z,100501.22
2023-05-09T15:39:08.417Z,100494.25
2023-05-09T15:41:35.101Z,100493.38
2023-05-09T15:44:01.607Z,100483.09
2023-05-09T15:46:28.299Z,100482.50
2023-05-09T15:48:56.139Z,100482.59
2023-05-09T15:51:22.621Z,100469.91
2023-05-09T15:53:49.807Z,100475.72
2023-05-09T15:56:16.274Z,100463.63
2023-05-09T15:58:42.663Z,100460.16
2023-05-09T16:01:12.794Z,100460.50
2023-05-09T16:03:39.476Z,100444.09
2023-05-09T16:06:06.503Z,100453.53
2023-05-09T16:08:33.251Z,100449.94
2023-05-09T16:11:02.589Z,100453.66
2023-05-09T16:13:30.080Z,100446.47
2023-05-09T16:15:56.908Z,100451.78
2023-05-09T16:18:23.474Z,100446.97
2023-05-09T16:20:49.902Z,100446.16
2023-05-09T16:23:16.309Z,100439.56
2023-05-09T16:25:42.764Z,100440.03
2023-05-09T16:28:09.335Z,100438.84
2023-05-09T16:30:36.357Z,100430.31
2023-05-09T16:33:02.950Z,100430.28
2023-05-09T16:35:29.554Z,100419.56
2023-05-09T16:37:56.135Z,100415.19
2023-05-09T16:40:22.707Z,100420.63
2023-05-09T16:42:49.398Z,100415.78
2023-05-09T16:45:15.952Z,100415.19
2023-05-09T16:47:42.379Z,100412.31
2023-05-09T16:50:10.458Z,100415.88
2023-05-09T16:52:37.152Z,100413.25
2023-05-09T16:55:04.258Z,100404.75
2023-05-09T16:57:31.109Z,100401.09
2023-05-09T16:59:58.465Z,100400.31
2023-05-09T17:02:24.888Z,100399.69
2023-05-09T17:04:51.618Z,100397.06
2023-05-09T17:07:18.124Z,100396.28
2023-05-09T17:09:44.619Z,100389.59
2023-05-09T17:12:17.311Z,100401.59
2023-05-09T17:14:45.236Z,100390.44
2023-05-09T17:17:12.928Z,100392.13
2023-05-09T17:19:39.494Z,100387.56
2023-05-09T17:22:06.472Z,100382.78
2023-05-09T17:24:33.323Z,100386.56
2023-05-09T17:27:01.214Z,100387.81
2023-05-09T17:29:30.517Z,100381.31
2023-05-09T17:32:01.614Z,100381.75
2023-05-09T17:34:28.606Z,100384.66
2023-05-09T17:36:55.243Z,100381.31
2023-05-09T17:39:21.983Z,100381.19
2023-05-09T17:41:48.440Z,100383.28
2023-05-09T17:44:15.422Z,100382.84
2023-05-09T17:46:42.045Z,100377.22
2023-05-09T17:49:10.825Z,100386.66
2023-05-09T17:51:37.522Z,100378.25
2023-05-09T17:54:05.352Z,100367.69
2023-05-09T17:56:32.201Z,100361.03
2023-05-09T17:58:59.552Z,100378.75
2023-05-09T18:01:26.528Z,100369.66
2023-05-09T18:03:53.196Z,100370.72
2023-05-09T18:06:19.794Z,100373.56
2023-05-09T18:08:46.227Z,100375.88
2023-05-09T18:11:12.975Z,100367.25
2023-05-09T18:13:39.599Z,100364.03
2023-05-09T18:16:06.653Z,100372.19
2023-05-09T18:18:34.477Z,100369.41
2023-05-09T18:21:02.115Z,100371.22
2023-05-09T18:23:28.602Z,100368.13
2023-05-09T18:25:55.073Z,100356.53
2023-05-09T18:28:27.565Z,100358.78
2023-05-09T18:30:56.778Z,100359.94
2023-05-09T18:33:24.553Z,100363.47
2023-05-09T18:35:52.853Z,100355.19
2023-05-09T18:38:19.371Z,100365.03
2023-05-09T18:40:46.042Z,100347.44
2023-05-09T18:43:12.480Z,100351.19
2023-05-09T18:45:39.096Z,100362.09
2023-05-09T18:48:05.834Z,100357.13
2023-05-09T18:50:32.499Z,100358.09
2023-05-09T18:52:59.550Z,100351.91
2023-05-09T18:55:26.717Z,100355.97
2023-05-09T18:57:53.257Z,100347.41
2023-05-09T19:00:19.717Z,100357.63
2023-05-09T19:02:46.172Z,100361.06
2023-05-09T19:05:12.689Z,100354.63
2023-05-09T19:07:39.639Z,100364.34
2023-05-09T19:10:08.287Z,100360.03
2023-05-09T19:12:37.742Z,100363.94
2023-05-09T19:15:05.368Z,100363.31
2023-05-09T19:17:32.750Z,100367.88
2023-05-09T19:19:59.296Z,100364.03
2023-05-09T19:22:26.502Z,100367.16
2023-05-09T19:24:52.947Z,100365.53
2023-05-09T19:27:19.590Z,100363.50
2023-05-09T19:29:47.496Z,100364.16
2023-05-09T19:32:17.751Z,100363.38
2023-05-09T19:34:44.162Z,100364.81
2023-05-09T19:37:10.600Z,100360.75
2023-05-09T19:39:37.298Z,100353.19
2023-05-09T19:42:03.874Z,100363.47
2023-05-09T19:44:30.443Z,100370.38
2023-05-09T19:46:58.397Z,100367.69
2023-05-09T19:49:24.927Z,100356.09
2023-05-09T19:51:51.281Z,100357.53
2023-05-09T19:54:17.694Z,100363.66
2023-05-09T19:56:44.202Z,100357.06
2023-05-09T19:59:10.646Z,100358.38
2023-05-09T20:01:37.915Z,100353.06
2023-05-09T20:04:04.525Z,100352.09
2023-05-09T20:06:31.346Z,100355.66
2023-05-09T20:08:57.843Z,100352.50
2023-05-09T20:11:24.287Z,100344.44
2023-05-09T20:13:50.823Z,100354.91
2023-05-09T20:16:17.423Z,100350.91
2023-05-09T20:18:44.120Z,100337.66
2023-05-09T20:21:10.772Z,100344.59
2023-05-09T20:23:39.460Z,100344.94
2023-05-09T20:26:06.034Z,100329.09
2023-05-09T20:28:32.538Z,100336.38
2023-05-09T20:30:59.076Z,100343.16
2023-05-09T20:33:25.620Z,100336.44
2023-05-09T20:35:52.137Z,100324.31
2023-05-09T20:38:19.100Z,100331.25
2023-05-09T20:40:45.501Z,100322.19
2023-05-09T20:43:12.188Z,100317.22
2023-05-09T20:45:38.802Z,100317.22
2023-05-09T20:48:06.739Z,100314.16
2023-05-09T20:50:33.510Z,100312.88
2023-05-09T20:53:00.124Z,100312.22
2023-05-09T20:55:27.055Z,100310.13
2023-05-09T20:57:53.487Z,100300.13
2023-05-09T21:00:19.935Z,100298.03
2023-05-09T21:02:46.621Z,100299.00
2023-05-09T21:05:13.123Z,100293.22
2023-05-09T21:07:39.660Z,100295.47
2023-05-09T21:10:06.802Z,100285.31
2023-05-09T21:12:33.349Z,100294.81
2023-05-09T21:14:59.924Z,100285.16
2023-05-09T21:17:26.502Z,100282.41
2023-05-09T21:19:53.218Z,100280.50
2023-05-09T21:22:19.626Z,100279.84
2023-05-09T21:24:46.374Z,100285.16
2023-05-09T21:27:12.894Z,100284.84
2023-05-09T21:29:39.562Z,100298.69
2023-05-09T21:32:06.080Z,100308.03
2023-05-09T21:34:32.826Z,100317.25
2023-05-09T21:36:59.231Z,100315.38
2023-05-09T21:39:26.936Z,100309.19
2023-05-09T21:41:53.370Z,100311.44
2023-05-09T21:44:19.810Z,100305.13
2023-05-09T21:46:46.555Z,100298.22
2023-05-09T21:49:16.488Z,100296.63
2023-05-09T21:51:42.970Z,100302.75
2023-05-09T21:54:10.756Z,100307.19
2023-05-09T21:56:37.245Z,100303.50
2023-05-09T21:59:03.752Z,100302.97
2023-05-09T22:01:30.194Z,100293.16
2023-05-09T22:03:56.703Z,100295.28
2023-05-09T22:06:23.312Z,100287.72
2023-05-09T22:08:51.058Z,100288.38
2023-05-09T22:11:18.211Z,100281.31
2023-05-09T22:13:44.592Z,100286.28
2023-05-09T22:16:11.110Z,100282.09
2023-05-09T22:18:37.685Z,100284.84
2023-05-09T22:21:04.411Z,100282.97
2023-05-09T22:23:31.370Z,100288.06
2023-05-09T22:25:58.034Z,100283.22
2023-05-09T22:28:24.511Z,100281.31
2023-05-09T22:30:50.912Z,100274.06
2023-05-09T22:33:17.351Z,100267.94
2023-05-09T22:35:43.794Z,100270.66
2023-05-09T22:38:10.929Z,100267.06
2023-05-09T22:40:37.832Z,100266.28
2023-05-09T22:43:04.413Z,100260.94
2023-05-09T22:45:30.858Z,100262.38
2023-05-09T22:47:57.514Z,100262.28
2023-05-09T22:50:23.985Z,100253.91
2023-05-09T22:52:50.432Z,100255.13
2023-05-09T22:55:16.945Z,100255.94
2023-05-09T22:57:43.332Z,100247.41
2023-05-09T23:00:10.404Z,100248.22
2023-05-09T23:02:37.205Z,100253.09
2023-05-09T23:05:03.825Z,100252.56
2023-05-09T23:07:30.293Z,100252.88
2023-05-09T23:09:56.731Z,100252.25
2023-05-09T23:12:23.109Z,100245.63
2023-05-09T23:14:49.513Z,100241.59
2023-05-09T23:17:16.078Z,100242.28
2023-05-09T23:19:42.510Z,100232.56
2023-05-09T23:22:08.965Z,100224.97
2023-05-09T23:24:35.848Z,100224.31
2023-05-09T23:27:05.051Z,100225.44
2023-05-09T23:29:33.270Z,100230.09
2023-05-09T23:31:59.941Z,100220.63
2023-05-09T23:34:26.640Z,100210.00
2023-05-09T23:36:53.079Z,100212.72
2023-05-09T23:39:19.532Z,100215.16
2023-05-09T23:41:46.042Z,100213.66
2023-05-09T23:44:12.554Z,100205.75
2023-05-09T23:46:39.011Z,100206.72
2023-05-09T23:49:05.824Z,100205.25
2023-05-09T23:51:32.778Z,100203.16
2023-05-09T23:53:59.221Z,100208.38
2023-05-09T23:56:27.522Z,100205.78
2023-05-09T23:58:54.043Z,100205.75
